x

South Santa Rosa Is. Ca (46069) Wave Buoy

3:50 - Mon 22nd Dec 2014 All times are PST. -8 hours from GMT.

  • Sig Wave height 11.5ft
  • Peak Period 14s
  • Average Period 8s
  • Wind
    25mph, 29mph gusts
  • Sea Temp 62°f
  • Luft Temp 63°f
  • Sea Pressure 1016.2mb
  • South Santa Rosa Is. Ca
  • South Santa Rosa Is. Ca

More Historic Weather Station data

Upgrade to MSW Pro to gain access to the past 30 days of data for over 8000 Wavebouys and Weather Stations around the globe.

Join Pro

Comparision Forecast

View Surf forecast
   
Mo 12/22 3:50 11.5ft 14s 8s 25 29 mph 1016.2mb 62f 63f
2:50 12ft 14s 8s 25 29 mph 1016.5mb 62f 63f
1:50 11ft 13s 8s 25 29 mph 1016.8mb 62f 63f
12:50 11.5ft 14s 8s 25 29 mph 1017.1mb 62f 64f
So 12/21 11:50 10ft 14s 7s 22 27 mph 1017.6mb 62f 64f
10:50 11.5ft 14s 7s 25 31 mph 1017.7mb 61f 64f
9:50 12ft 15s 7s 25 29 mph 1018mb 61f 63f
8:50 13ft 14s 7s 29 36 mph 1017.3mb 62f 63f
7:50 13.5ft 14s 7s 29 34 mph 1017.1mb 62f 63f
6:50 13ft 15s 7s 38 45 mph 1015.5mb 62f 62f
5:50 15ft 15s 8s 31 38 mph 1017.4mb 62f 62f
4:50 15ft 14s 8s 29 38 mph 1017.9mb 62f 62f
3:50 14ft 14s 8s 34 43 mph 1017.4mb 62f 62f
2:50 13.5ft 15s 8s 31 38 mph 1017.5mb 62f 62f
1:50 13.5ft 15s 8s 34 40 mph 1017.3mb 62f 62f
12:50 13ft 15s 8s 34 40 mph 1017.7mb 62f 62f
11:50 13ft 16s 8s 29 36 mph 1019.2mb 61f 62f
10:50 11.5ft 16s 8s 29 34 mph 1020.1mb 61f 62f
9:50 14ft 15s 8s 29 38 mph 1020.6mb 61f 62f
8:50 13.5ft 16s 8s 31 38 mph 1020.1mb 61f 62f
7:50 13ft 15s 7s 29 38 mph 1019.6mb 61f 62f
6:50 14ft 16s 8s 31 38 mph 1019.7mb 61f 61f
5:50 13ft 15s 8s 31 38 mph 1019.6mb 61f 62f
4:50 13.5ft 14s 8s 34 40 mph 1019mb 62f 62f
3:50 14.5ft 16s 9s 31 40 mph 1018.9mb 62f 62f
2:50 14ft 16s 8s 34 40 mph 1018.6mb 62f 62f
1:50 15ft 16s 9s 31 38 mph 1019.4mb 62f 62f
12:50 13ft 16s 8s 29 38 mph 1020.2mb 62f 62f
Sa 12/20 11:50 13ft 16s 9s 20 29 mph 1021mb 62f 62f
10:50 11.5ft 15s 7s 27 31 mph 1021.2mb 62f 62f
9:50 13.5ft 16s 9s 29 36 mph 1020.7mb 62f 62f
8:50 14ft 16s 9s 29 34 mph 1020.4mb 62f 61f
7:50 13.5ft 17s 9s 27 31 mph 1020.7mb 62f 62f
6:50 12ft 15s 9s 25 31 mph 1020.6mb 62f 62f
5:50 14.5ft 16s 11s 22 27 mph 1020.9mb 62f 61f
4:50 15.5ft 16s 12s 18 22 mph 1020.6mb 62f 62f
3:50 14.5ft 16s 12s 16 20 mph 1020.3mb 62f 62f
2:50 13ft 17s 12s 16 18 mph 1020.4mb 62f 62f
1:50 14.5ft 17s 12s 13 18 mph 1020.4mb 62f 62f
12:50 15.5ft 17s 13s 13 18 mph 1021mb 62f 62f
11:50 14ft 17s 13s 13 18 mph 1021.8mb 62f 62f
10:50 12.5ft 17s 13s 13 16 mph 1022.3mb 62f 62f
9:50 12ft 19s 12s 7 11 mph 1022.1mb 62f 62f
8:50 11ft 19s 11s 11 13 mph 1021.8mb 62f 62f
7:50 11ft 19s 12s 11 13 mph 1021.3mb 62f 62f
6:50 10ft 19s 11s 13 16 mph 1020.6mb 62f 61f
5:50 11ft 19s 12s 11 16 mph 1020.4mb 62f 62f
4:50 9ft 19s 11s 11 16 mph 1019.9mb 62f 61f
3:50 8.5ft 19s 11s 11 13 mph 1020.6mb 62f 61f
2:50 8ft 19s 11s 9 11 mph 1021.1mb 62f 61f
1:50 6ft 19s 10s 9 11 mph 1021.1mb 62f 61f
12:50 7.5ft 21s 11s 7 9 mph 1021.2mb 62f 61f
Fr 12/19 11:50 7ft 19s 11s 7 9 mph 1022.1mb 62f 61f
10:50 6.5ft 21s 11s 7 9 mph 1021.7mb 62f 61f
9:50 6ft 21s 9s 4 7 mph 1021.8mb 62f 61f
8:50 6ft 21s 10s 7 9 mph 1021.8mb 62f 61f
7:50 6ft 13s 9s 4 9 mph 1020.9mb 62f 60f
6:50 5.5ft 11s 9s 9 11 mph 1021.9mb 62f 61f
5:50 6ft 13s 9s 9 11 mph 1021.6mb 62f 61f
4:50 6ft 13s 9s 9 11 mph 1021.8mb 63f 60f
3:50 6ft 11s 9s 7 9 mph 1021.2mb 63f 60f
2:50 6ft 11s 8s 4 7 mph 1021.2mb 63f 61f
1:50 6.5ft 11s 9s  -  2 mph 1021.3mb 63f 61f
12:50 6ft 13s 9s  -  2 mph 1022.1mb 62f 61f
11:50 7ft 13s 9s 7 9 mph 1023.5mb 62f 60f
10:50 6.5ft 11s 9s 4 7 mph 1024.1mb 62f 60f
9:50 7ft 13s 9s 4 7 mph 1023.8mb 62f 60f
8:50 8ft 14s 9s 2 4 mph 1022.9mb 62f 60f
7:50 7.5ft 14s 9s  -  2 mph 1022.8mb 62f 61f
6:50 8ft 12s 9s 2 4 mph 1022.7mb 62f 60f
5:50 8ft 13s 9s 4 7 mph 1021.8mb 62f 60f
3:50 8ft 14s 9s 7 11 mph 1022.9mb 62f 60f
2:50 8ft 12s 9s 2 7 mph 1022.5mb 62f 59f
1:50 8ft 12s 9s 4 9 mph 1021.7mb 62f 59f
12:50 9ft 14s 10s 7 9 mph 1022.6mb 62f 60f
Do 12/18 11:50 8ft 14s 9s 4 9 mph 1023mb 62f 60f
10:50 8.5ft 15s 9s 4 7 mph 1022.8mb 62f 60f
9:50 9ft 13s 10s 2 4 mph 1022.5mb 62f 60f
8:50 9ft 14s 10s 4 7 mph 1022.2mb 62f 60f
7:50 9ft 14s 9s 2 7 mph 1022.2mb 62f 60f
6:50 8ft 15s 9s  -  2 mph 1021.8mb 62f 60f
5:50 8.5ft 14s 9s  -  2 mph 1021.4mb 62f 60f
4:50 8ft 14s 9s 2
mph
1020.9mb 62f 60f
3:50 7.5ft 11s 8s 4 7 mph 1020.7mb 62f 60f
2:50 7ft 15s 8s 4 7 mph 1020.4mb 62f 60f
1:50 7.5ft 11s 8s 7 9 mph 1020mb 62f 60f